createdAt,value
2023-01-28T00:00:54.062Z,28.30
2023-01-28T00:03:20.289Z,28.30
2023-01-28T00:05:46.478Z,28.30
2023-01-28T00:08:14.222Z,28.30
2023-01-28T00:10:42.406Z,28.20
2023-01-28T00:13:11.055Z,28.20
2023-01-28T00:15:37.336Z,28.20
2023-01-28T00:18:03.595Z,28.30
2023-01-28T00:20:29.659Z,28.30
2023-01-28T00:22:55.844Z,28.30
2023-01-28T00:25:22.166Z,28.30
2023-01-28T00:27:50.310Z,28.30
2023-01-28T00:30:17.381Z,28.30
2023-01-28T00:32:44.452Z,28.30
2023-01-28T00:35:11.213Z,28.20
2023-01-28T00:37:37.519Z,28.30
2023-01-28T00:40:03.917Z,28.20
2023-01-28T00:42:30.072Z,28.30
2023-01-28T00:44:56.165Z,28.20
2023-01-28T00:47:22.283Z,28.20
2023-01-28T00:49:48.484Z,28.20
2023-01-28T00:52:14.656Z,28.20
2023-01-28T00:54:40.707Z,28.20
2023-01-28T00:57:09.908Z,28.20
2023-01-28T00:59:35.990Z,28.20
2023-01-28T01:02:11.872Z,28.20
2023-01-28T01:04:54.081Z,28.20
2023-01-28T01:07:34.077Z,28.20
2023-01-28T01:10:03.747Z,28.30
2023-01-28T01:12:30.085Z,28.30
2023-01-28T01:14:56.787Z,28.20
2023-01-28T01:17:22.936Z,28.20
2023-01-28T01:19:49.087Z,28.30
2023-01-28T01:22:15.187Z,28.20
2023-01-28T01:24:41.354Z,28.20
2023-01-28T01:27:07.505Z,28.20
2023-01-28T01:29:33.703Z,28.20
2023-01-28T01:32:00.384Z,28.20
2023-01-28T01:34:26.476Z,28.20
2023-01-28T01:36:52.563Z,28.20
2023-01-28T01:39:18.652Z,28.20
2023-01-28T01:41:45.211Z,28.20
2023-01-28T01:44:48.568Z,28.20
2023-01-28T01:47:15.620Z,28.20
2023-01-28T01:49:42.225Z,28.20
2023-01-28T01:52:15.121Z,28.20
2023-01-28T01:54:44.756Z,28.20
2023-01-28T01:57:15.852Z,28.20
2023-01-28T01:59:43.300Z,28.70
2023-01-28T02:02:11.315Z,28.20
2023-01-28T02:04:40.951Z,28.20
2023-01-28T02:07:10.423Z,28.20
2023-01-28T02:09:37.876Z,28.20
2023-01-28T02:12:06.816Z,28.20
2023-01-28T02:14:37.890Z,28.20
2023-01-28T02:17:04.353Z,28.20
2023-01-28T02:19:46.305Z,28.20
2023-01-28T02:22:26.225Z,28.70
2023-01-28T02:25:07.234Z,28.20
2023-01-28T02:27:49.972Z,28.20
2023-01-28T02:30:24.869Z,28.20
2023-01-28T02:33:00.155Z,28.20
2023-01-28T02:35:38.795Z,28.20
2023-01-28T02:38:25.891Z,28.20
2023-01-28T02:41:09.164Z,28.20
2023-01-28T02:43:45.253Z,28.20
2023-01-28T02:46:44.834Z,28.20
2023-01-28T02:49:22.006Z,28.20
2023-01-28T02:51:57.380Z,28.20
2023-01-28T02:55:02.159Z,28.20
2023-01-28T02:57:35.675Z,28.20
2023-01-28T03:00:23.742Z,28.20
2023-01-28T03:03:17.095Z,28.20
2023-01-28T03:06:07.723Z,28.20
2023-01-28T03:09:03.421Z,28.20
2023-01-28T03:12:00.369Z,28.20
2023-01-28T03:14:46.265Z,28.20
2023-01-28T03:17:36.895Z,28.20
2023-01-28T03:20:22.147Z,28.20
2023-01-28T03:23:11.046Z,28.20
2023-01-28T03:25:58.570Z,28.20
2023-01-28T03:28:44.940Z,28.20
2023-01-28T03:31:35.857Z,28.20
2023-01-28T03:34:22.182Z,28.20
2023-01-28T03:36:49.883Z,28.20
2023-01-28T03:39:18.350Z,28.20
2023-01-28T03:42:03.057Z,28.20
2023-01-28T03:44:47.597Z,28.10
2023-01-28T03:47:13.740Z,28.20
2023-01-28T03:49:50.591Z,28.20
2023-01-28T03:52:24.973Z,28.20
2023-01-28T03:54:52.251Z,28.20
2023-01-28T03:57:21.296Z,28.20
2023-01-28T03:59:52.020Z,28.70
2023-01-28T04:02:20.046Z,28.10
2023-01-28T04:04:46.192Z,28.20
2023-01-28T04:07:16.210Z,28.20
2023-01-28T04:09:42.765Z,28.20
2023-01-28T04:12:10.184Z,28.20
2023-01-28T04:14:36.460Z,28.20
2023-01-28T04:17:02.632Z,28.20
2023-01-28T04:19:31.112Z,28.20
2023-01-28T04:21:57.437Z,28.20
2023-01-28T04:24:23.887Z,28.20
2023-01-28T04:26:50.267Z,28.20
2023-01-28T04:29:16.427Z,28.20
2023-01-28T04:31:42.566Z,28.20
2023-01-28T04:34:09.290Z,28.10
2023-01-28T04:36:35.480Z,28.20
2023-01-28T04:39:01.861Z,28.10
2023-01-28T04:41:28.000Z,28.10
2023-01-28T04:43:54.213Z,28.20
2023-01-28T04:46:20.445Z,28.20
2023-01-28T04:48:46.616Z,28.20
2023-01-28T04:51:12.667Z,28.10
2023-01-28T04:53:38.857Z,28.10
2023-01-28T04:56:05.050Z,28.10
2023-01-28T04:58:31.137Z,28.20
2023-01-28T05:00:58.678Z,28.10
2023-01-28T05:03:25.566Z,28.20
2023-01-28T05:05:52.040Z,28.20
2023-01-28T05:08:18.275Z,28.20
2023-01-28T05:10:44.615Z,28.20
2023-01-28T05:13:10.714Z,28.20
2023-01-28T05:15:36.875Z,28.30
2023-01-28T05:18:03.183Z,28.30
2023-01-28T05:20:29.268Z,28.30
2023-01-28T05:22:55.381Z,28.40
2023-01-28T05:25:22.403Z,28.30
2023-01-28T05:27:52.000Z,28.40
2023-01-28T05:30:21.758Z,28.40
2023-01-28T05:32:48.359Z,28.40
2023-01-28T05:35:14.994Z,28.40
2023-01-28T05:37:41.216Z,28.30
2023-01-28T05:40:08.035Z,28.30
2023-01-28T05:42:34.158Z,28.30
2023-01-28T05:45:00.497Z,28.20
2023-01-28T05:47:26.613Z,28.20
2023-01-28T05:49:52.674Z,28.20
2023-01-28T05:52:18.778Z,28.10
2023-01-28T05:54:45.077Z,28.10
2023-01-28T05:57:11.269Z,28.10
2023-01-28T05:59:37.353Z,28.10
2023-01-28T06:02:03.459Z,28.10
2023-01-28T06:04:29.537Z,28.10
2023-01-28T06:06:55.774Z,28.00
2023-01-28T06:09:21.890Z,28.00
2023-01-28T06:11:49.625Z,28.00
2023-01-28T06:14:15.704Z,28.00
2023-01-28T06:16:41.756Z,27.90
2023-01-28T06:19:07.823Z,27.90
2023-01-28T06:21:34.988Z,27.90
2023-01-28T06:24:01.100Z,27.90
2023-01-28T06:26:27.254Z,27.80
2023-01-28T06:28:53.319Z,27.80
2023-01-28T06:31:19.436Z,27.80
2023-01-28T06:33:45.559Z,27.80
2023-01-28T06:36:11.864Z,27.80
2023-01-28T06:38:38.069Z,27.70
2023-01-28T06:41:04.429Z,27.70
2023-01-28T06:43:30.565Z,27.70
2023-01-28T06:45:57.650Z,27.60
2023-01-28T06:48:24.577Z,27.60
2023-01-28T06:50:50.895Z,27.60
2023-01-28T06:53:17.728Z,27.60
2023-01-28T06:55:43.956Z,27.60
2023-01-28T06:58:10.062Z,27.60
2023-01-28T07:00:37.169Z,27.60
2023-01-28T07:03:04.261Z,27.50
2023-01-28T07:05:30.554Z,27.50
2023-01-28T07:07:56.674Z,27.50
2023-01-28T07:10:22.749Z,27.50
2023-01-28T07:12:48.828Z,27.50
2023-01-28T07:15:15.305Z,27.50
2023-01-28T07:17:42.003Z,27.50
2023-01-28T07:20:10.444Z,27.50
2023-01-28T07:22:38.868Z,27.50
2023-01-28T07:25:05.990Z,27.50
2023-01-28T07:27:32.055Z,27.50
2023-01-28T07:29:58.149Z,27.50
2023-01-28T07:32:26.690Z,27.50
2023-01-28T07:34:55.643Z,27.50
2023-01-28T07:37:21.858Z,27.50
2023-01-28T07:39:47.943Z,27.50
2023-01-28T07:42:14.114Z,27.50
2023-01-28T07:44:40.264Z,27.50
2023-01-28T07:47:06.681Z,27.50
2023-01-28T07:49:33.653Z,27.50
2023-01-28T07:52:00.014Z,27.50
2023-01-28T07:54:26.118Z,27.50
2023-01-28T07:56:52.197Z,27.50
2023-01-28T07:59:18.640Z,27.50
2023-01-28T08:01:44.758Z,27.50
2023-01-28T08:04:11.091Z,27.60
2023-01-28T08:06:37.368Z,27.50
2023-01-28T08:09:05.527Z,27.50
2023-01-28T08:11:32.511Z,27.50
2023-01-28T08:13:58.643Z,27.50
2023-01-28T08:16:24.718Z,27.50
2023-01-28T08:18:51.890Z,27.50
2023-01-28T08:21:17.955Z,27.50
2023-01-28T08:23:44.104Z,27.50
2023-01-28T08:26:10.222Z,27.50
2023-01-28T08:28:36.495Z,27.50
2023-01-28T08:31:02.988Z,27.50
2023-01-28T08:33:29.563Z,27.50
2023-01-28T08:35:55.802Z,27.50
2023-01-28T08:38:22.144Z,27.50
2023-01-28T08:40:54.867Z,27.50
2023-01-28T08:43:21.107Z,27.50
2023-01-28T08:45:47.237Z,27.50
2023-01-28T08:48:17.703Z,27.50
2023-01-28T08:50:44.442Z,27.50
2023-01-28T08:53:13.599Z,27.50
2023-01-28T08:55:39.760Z,27.50
2023-01-28T08:58:10.615Z,27.50
2023-01-28T09:00:37.122Z,27.50
2023-01-28T09:03:06.140Z,27.50
2023-01-28T09:05:33.592Z,27.50
2023-01-28T09:08:11.847Z,27.60
2023-01-28T09:10:38.390Z,27.50
2023-01-28T09:13:09.259Z,27.50
2023-01-28T09:15:35.746Z,27.50
2023-01-28T09:18:01.945Z,27.50
2023-01-28T09:20:28.051Z,27.50
2023-01-28T09:22:54.368Z,27.60
2023-01-28T09:25:20.558Z,27.50
2023-01-28T09:27:46.751Z,27.50
2023-01-28T09:30:13.736Z,27.50
2023-01-28T09:32:40.272Z,27.50
2023-01-28T09:35:08.027Z,27.50
2023-01-28T09:37:34.158Z,27.60
2023-01-28T09:40:00.393Z,27.50
2023-01-28T09:42:56.393Z,27.50
2023-01-28T09:45:38.130Z,27.50
2023-01-28T09:48:06.257Z,27.50
2023-01-28T09:50:38.834Z,27.50
2023-01-28T09:53:50.139Z,27.60
2023-01-28T09:56:25.387Z,27.50
2023-01-28T09:58:51.810Z,27.50
2023-01-28T10:01:20.885Z,27.50
2023-01-28T10:03:52.686Z,27.50
2023-01-28T10:06:36.913Z,27.50
2023-01-28T10:09:22.149Z,27.50
2023-01-28T10:12:09.847Z,27.50
2023-01-28T10:14:57.501Z,27.50
2023-01-28T10:18:00.982Z,27.50
2023-01-28T10:21:10.122Z,27.50
2023-01-28T10:23:50.268Z,27.50
2023-01-28T10:26:23.495Z,27.50
2023-01-28T10:28:55.588Z,27.50
2023-01-28T10:31:23.737Z,27.50
2023-01-28T10:33:49.813Z,27.50
2023-01-28T10:36:17.616Z,27.60
2023-01-28T10:38:43.866Z,27.50
2023-01-28T10:41:11.904Z,27.50
2023-01-28T10:43:41.128Z,27.50
2023-01-28T10:46:45.687Z,27.50
2023-01-28T10:49:21.228Z,27.50
2023-01-28T10:51:47.476Z,27.50
2023-01-28T10:54:28.125Z,27.50
2023-01-28T10:57:00.466Z,27.50
2023-01-28T10:59:28.762Z,27.50
2023-01-28T11:02:02.990Z,27.50
2023-01-28T11:04:31.745Z,27.50
2023-01-28T11:07:18.723Z,27.60
2023-01-28T11:09:48.802Z,27.50
2023-01-28T11:12:20.865Z,27.60
2023-01-28T11:14:51.642Z,27.60
2023-01-28T11:17:22.406Z,27.60
2023-01-28T11:19:48.681Z,27.60
2023-01-28T11:22:23.084Z,27.60
2023-01-28T11:24:49.374Z,27.60
2023-01-28T11:27:18.058Z,27.60
2023-01-28T11:29:44.580Z,27.50
2023-01-28T11:32:20.555Z,27.50
2023-01-28T11:34:52.275Z,27.50
2023-01-28T11:37:22.425Z,27.50
2023-01-28T11:39:48.738Z,27.60
2023-01-28T11:42:20.048Z,27.50
2023-01-28T11:44:47.643Z,27.50
2023-01-28T11:48:01.758Z,27.50
2023-01-28T11:50:35.501Z,27.50
2023-01-28T11:53:18.651Z,27.60
2023-01-28T11:56:00.840Z,27.60
2023-01-28T11:58:41.567Z,27.60
2023-01-28T12:01:22.131Z,27.50
2023-01-28T12:04:25.476Z,27.60
2023-01-28T12:07:10.049Z,27.50
2023-01-28T12:09:55.198Z,27.50
2023-01-28T12:12:39.743Z,27.60
2023-01-28T12:15:37.801Z,27.50
2023-01-28T12:18:21.556Z,27.50
2023-01-28T12:21:10.078Z,27.60
2023-01-28T12:23:54.730Z,27.60
2023-01-28T12:26:44.801Z,27.60
2023-01-28T12:29:32.659Z,27.60
2023-01-28T12:32:28.135Z,27.50
2023-01-28T12:35:15.761Z,27.50
2023-01-28T12:38:05.755Z,27.60
2023-01-28T12:40:44.379Z,27.50
2023-01-28T12:43:13.725Z,27.50
2023-01-28T12:45:47.038Z,27.50
2023-01-28T12:48:21.686Z,27.60
2023-01-28T12:50:57.328Z,27.50
2023-01-28T12:53:34.593Z,27.60
2023-01-28T12:56:15.421Z,27.50
2023-01-28T12:58:53.806Z,27.50
2023-01-28T13:01:26.989Z,27.50
2023-01-28T13:04:11.960Z,27.50
2023-01-28T13:06:46.060Z,27.50
2023-01-28T13:09:19.526Z,27.60
2023-01-28T13:11:49.085Z,27.50
2023-01-28T13:14:16.469Z,27.60
2023-01-28T13:16:42.907Z,27.50
2023-01-28T13:19:17.898Z,27.50
2023-01-28T13:21:49.903Z,27.50
2023-01-28T13:24:16.010Z,27.50
2023-01-28T13:26:49.788Z,27.50
2023-01-28T13:29:22.084Z,27.50
2023-01-28T13:31:52.402Z,27.50
2023-01-28T13:34:33.125Z,27.50
2023-01-28T13:37:20.943Z,27.50
2023-01-28T13:39:53.060Z,27.50
2023-01-28T13:42:19.102Z,27.50
2023-01-28T13:44:45.426Z,27.50
2023-01-28T13:47:32.105Z,27.50
2023-01-28T13:50:01.835Z,27.50
2023-01-28T13:52:33.608Z,27.50
2023-01-28T13:55:07.097Z,27.50
2023-01-28T13:58:04.458Z,27.60
2023-01-28T14:01:08.425Z,27.50
2023-01-28T14:03:54.877Z,27.50
2023-01-28T14:07:00.358Z,27.50
2023-01-28T14:09:56.893Z,27.50
2023-01-28T14:12:31.377Z,27.50
2023-01-28T14:15:17.417Z,27.50
2023-01-28T14:17:49.239Z,27.50
2023-01-28T14:20:37.253Z,27.50
2023-01-28T14:23:06.097Z,27.60
2023-01-28T14:25:47.205Z,27.50
2023-01-28T14:28:30.301Z,27.50
2023-01-28T14:31:04.409Z,27.50
2023-01-28T14:33:32.375Z,27.50
2023-01-28T14:35:58.535Z,27.50
2023-01-28T14:38:24.678Z,27.60
2023-01-28T14:40:52.876Z,27.50
2023-01-28T14:43:23.604Z,27.50
2023-01-28T14:46:27.539Z,27.50
2023-01-28T14:49:19.446Z,27.50
2023-01-28T14:51:52.055Z,27.50
2023-01-28T14:54:42.255Z,27.50
2023-01-28T14:57:46.274Z,27.50
2023-01-28T15:00:39.077Z,27.50
2023-01-28T15:03:24.855Z,27.50
2023-01-28T15:06:14.719Z,27.50
2023-01-28T15:08:40.827Z,27.50
2023-01-28T15:11:14.552Z,27.50
2023-01-28T15:13:44.372Z,27.50
2023-01-28T15:16:28.512Z,28.00
2023-01-28T15:19:15.559Z,27.50
2023-01-28T15:21:44.784Z,27.50
2023-01-28T15:24:15.200Z,27.60
2023-01-28T15:26:47.758Z,27.50
2023-01-28T15:29:25.008Z,27.50
2023-01-28T15:31:51.605Z,27.50
2023-01-28T15:34:19.430Z,27.50
2023-01-28T15:36:47.216Z,27.50
2023-01-28T15:39:22.465Z,27.50
2023-01-28T15:41:52.789Z,27.50
2023-01-28T15:44:28.645Z,27.50
2023-01-28T15:47:03.584Z,27.50
2023-01-28T15:49:36.242Z,27.50
2023-01-28T15:52:02.837Z,27.50
2023-01-28T15:54:30.259Z,27.50
2023-01-28T15:56:56.675Z,27.50
2023-01-28T15:59:28.416Z,27.50
2023-01-28T16:02:16.896Z,27.50
2023-01-28T16:04:43.379Z,27.50
2023-01-28T16:07:09.658Z,27.50
2023-01-28T16:09:36.233Z,27.50
2023-01-28T16:12:05.147Z,27.50
2023-01-28T16:14:39.759Z,27.50
2023-01-28T16:17:06.821Z,27.50
2023-01-28T16:19:40.066Z,27.60
2023-01-28T16:22:07.494Z,27.60
2023-01-28T16:24:38.018Z,27.60
2023-01-28T16:27:06.881Z,27.60
2023-01-28T16:29:33.464Z,27.60
2023-01-28T16:32:00.614Z,27.60
2023-01-28T16:34:29.845Z,27.60
2023-01-28T16:37:01.597Z,27.60
2023-01-28T16:39:27.739Z,27.60
2023-01-28T16:41:56.202Z,27.60
2023-01-28T16:44:22.303Z,27.60
2023-01-28T16:46:48.441Z,28.10
2023-01-28T16:49:14.531Z,27.60
2023-01-28T16:51:43.116Z,27.50
2023-01-28T16:54:13.912Z,27.50
2023-01-28T16:56:47.339Z,27.50
2023-01-28T16:59:15.193Z,27.50
2023-01-28T17:01:44.746Z,27.50
2023-01-28T17:04:12.714Z,27.40
2023-01-28T17:06:42.098Z,27.40
2023-01-28T17:09:09.075Z,27.40
2023-01-28T17:11:35.307Z,27.40
2023-01-28T17:14:01.746Z,27.90
2023-01-28T17:16:28.325Z,27.30
2023-01-28T17:18:54.817Z,27.30
2023-01-28T17:21:21.357Z,27.30
2023-01-28T17:23:47.455Z,27.30
2023-01-28T17:26:15.381Z,27.20
2023-01-28T17:28:41.952Z,27.20
2023-01-28T17:31:11.852Z,27.20
2023-01-28T17:33:38.820Z,27.20
2023-01-28T17:36:05.609Z,27.20
2023-01-28T17:38:31.855Z,27.20
2023-01-28T17:41:16.943Z,27.10
2023-01-28T17:43:43.535Z,27.10
2023-01-28T17:46:14.431Z,27.10
2023-01-28T17:48:42.093Z,27.10
2023-01-28T17:51:08.338Z,27.00
2023-01-28T17:53:34.464Z,27.00
2023-01-28T17:56:00.929Z,27.00
2023-01-28T17:58:27.048Z,27.10
2023-01-28T18:00:53.260Z,27.00
2023-01-28T18:03:19.333Z,26.90
2023-01-28T18:05:55.322Z,26.00
2023-01-28T18:08:21.406Z,26.30
2023-01-28T18:10:47.491Z,26.50
2023-01-28T18:13:13.593Z,26.50
2023-01-28T18:15:39.777Z,26.50
2023-01-28T18:18:06.756Z,26.60
2023-01-28T18:20:34.096Z,26.60
2023-01-28T18:23:00.754Z,26.60
2023-01-28T18:25:26.968Z,26.60
2023-01-28T18:27:53.685Z,26.60
2023-01-28T18:30:19.987Z,26.60
2023-01-28T18:32:46.190Z,26.60
2023-01-28T18:35:12.557Z,26.60
2023-01-28T18:37:39.662Z,26.60
2023-01-28T18:40:06.488Z,26.70
2023-01-28T18:42:32.622Z,26.70
2023-01-28T18:44:58.999Z,26.60
2023-01-28T18:47:25.640Z,26.70
2023-01-28T18:49:51.735Z,26.70
2023-01-28T18:52:17.840Z,26.70
2023-01-28T18:54:43.962Z,26.70
2023-01-28T18:57:10.348Z,26.70
2023-01-28T18:59:36.442Z,26.70
2023-01-28T19:02:02.587Z,26.70
2023-01-28T19:04:28.722Z,26.70
2023-01-28T19:06:56.548Z,26.70
2023-01-28T19:09:22.831Z,26.70
2023-01-28T19:11:50.235Z,26.70
2023-01-28T19:14:16.960Z,26.70
2023-01-28T19:16:43.604Z,26.70
2023-01-28T19:19:10.377Z,26.70
2023-01-28T19:21:37.358Z,26.70
2023-01-28T19:24:08.493Z,26.70
2023-01-28T19:26:35.430Z,26.70
2023-01-28T19:29:01.775Z,26.70
2023-01-28T19:31:28.861Z,26.70
2023-01-28T19:33:57.952Z,26.70
2023-01-28T19:36:25.893Z,26.70
2023-01-28T19:38:52.956Z,26.70
2023-01-28T19:41:19.115Z,26.70
2023-01-28T19:43:45.302Z,26.70
2023-01-28T19:46:14.956Z,26.70
2023-01-28T19:48:41.077Z,26.70
2023-01-28T19:51:08.893Z,26.70
2023-01-28T19:53:36.172Z,26.70
2023-01-28T19:56:04.007Z,26.70
2023-01-28T19:58:34.007Z,26.70
2023-01-28T20:01:08.226Z,26.70
2023-01-28T20:03:34.386Z,26.70
2023-01-28T20:06:01.811Z,26.70
2023-01-28T20:08:28.329Z,26.80
2023-01-28T20:11:11.724Z,26.70
2023-01-28T20:13:39.603Z,26.70
2023-01-28T20:16:07.244Z,26.80
2023-01-28T20:18:34.083Z,26.80
2023-01-28T20:21:00.347Z,26.80
2023-01-28T20:23:26.880Z,26.80
2023-01-28T20:25:54.460Z,26.80
2023-01-28T20:28:21.803Z,26.80
2023-01-28T20:30:50.034Z,26.80
2023-01-28T20:33:16.431Z,26.80
2023-01-28T20:35:43.491Z,26.80
2023-01-28T20:38:09.943Z,26.70
2023-01-28T20:40:36.796Z,26.80
2023-01-28T20:43:03.265Z,26.80
2023-01-28T20:45:31.018Z,26.80
2023-01-28T20:47:57.155Z,27.30
2023-01-28T20:50:23.406Z,26.80
2023-01-28T20:52:49.616Z,26.80
2023-01-28T20:55:16.039Z,26.80
2023-01-28T20:57:44.431Z,26.80
2023-01-28T21:00:11.787Z,26.80
2023-01-28T21:02:43.236Z,26.80
2023-01-28T21:05:09.472Z,26.80
2023-01-28T21:07:35.580Z,26.80
2023-01-28T21:10:02.532Z,26.80
2023-01-28T21:12:29.591Z,26.80
2023-01-28T21:14:56.501Z,26.80
2023-01-28T21:17:24.274Z,26.80
2023-01-28T21:19:50.410Z,26.80
2023-01-28T21:22:16.514Z,26.80
2023-01-28T21:24:44.197Z,26.80
2023-01-28T21:27:10.326Z,26.80
2023-01-28T21:29:36.507Z,26.80
2023-01-28T21:32:02.692Z,26.80
2023-01-28T21:34:28.928Z,26.80
2023-01-28T21:36:55.421Z,26.80
2023-01-28T21:39:21.639Z,26.80
2023-01-28T21:41:47.747Z,26.80
2023-01-28T21:44:13.832Z,26.80
2023-01-28T21:46:40.223Z,26.80
2023-01-28T21:49:06.364Z,26.80
2023-01-28T21:51:35.473Z,26.80
2023-01-28T21:54:03.062Z,27.40
2023-01-28T21:56:29.124Z,26.80
2023-01-28T21:59:13.653Z,26.80
2023-01-28T22:01:39.933Z,26.80
2023-01-28T22:04:06.079Z,26.80
2023-01-28T22:06:32.162Z,26.80
2023-01-28T22:08:58.465Z,26.90
2023-01-28T22:11:24.622Z,26.80
2023-01-28T22:13:50.726Z,26.80
2023-01-28T22:16:17.768Z,26.90
2023-01-28T22:18:45.979Z,26.80
2023-01-28T22:21:12.557Z,26.80
2023-01-28T22:23:38.979Z,26.80
2023-01-28T22:26:05.135Z,26.80
2023-01-28T22:28:31.279Z,26.90
2023-01-28T22:31:06.667Z,26.90
2023-01-28T22:33:32.901Z,26.80
2023-01-28T22:35:59.082Z,26.90
2023-01-28T22:38:25.278Z,26.90
2023-01-28T22:40:51.362Z,26.90
2023-01-28T22:43:17.730Z,26.80
2023-01-28T22:45:44.177Z,26.80
2023-01-28T22:48:10.289Z,26.90
2023-01-28T22:50:36.559Z,26.80
2023-01-28T22:53:03.529Z,26.80
2023-01-28T22:55:32.127Z,26.80
2023-01-28T22:57:58.194Z,26.80
2023-01-28T23:00:27.415Z,26.90
2023-01-28T23:02:53.618Z,26.90
2023-01-28T23:05:20.320Z,26.80
2023-01-28T23:07:46.516Z,26.90
2023-01-28T23:10:12.713Z,26.90
2023-01-28T23:12:38.883Z,26.90
2023-01-28T23:15:23.984Z,26.90
2023-01-28T23:18:08.793Z,26.90
2023-01-28T23:20:56.291Z,26.90
2023-01-28T23:23:41.176Z,26.90
2023-01-28T23:26:07.338Z,26.90
2023-01-28T23:28:33.480Z,26.90
2023-01-28T23:31:00.787Z,26.90
2023-01-28T23:33:27.143Z,26.90
2023-01-28T23:35:53.210Z,26.90
2023-01-28T23:38:19.310Z,26.90
2023-01-28T23:40:45.430Z,26.90
2023-01-28T23:43:12.173Z,26.90
2023-01-28T23:45:38.261Z,26.90
2023-01-28T23:48:04.540Z,26.90
2023-01-28T23:50:30.739Z,26.90
2023-01-28T23:52:59.591Z,26.90
2023-01-28T23:55:25.686Z,26.90
2023-01-28T23:57:51.773Z,26.90
